sensor_id;sensor_type;location;lat;lon;timestamp;temperature;humidity
37702;DHT22;23548;51.196;6.838;2023-06-26T00:01:23;23.00;76.80
37702;DHT22;23548;51.196;6.838;2023-06-26T00:03:49;23.00;77.10
37702;DHT22;23548;51.196;6.838;2023-06-26T00:06:15;22.90;77.50
37702;DHT22;23548;51.196;6.838;2023-06-26T00:08:40;22.90;77.70
37702;DHT22;23548;51.196;6.838;2023-06-26T00:11:06;22.80;78.00
37702;DHT22;23548;51.196;6.838;2023-06-26T00:13:32;22.80;77.80
37702;DHT22;23548;51.196;6.838;2023-06-26T00:15:57;22.70;78.20
37702;DHT22;23548;51.196;6.838;2023-06-26T00:18:25;22.70;78.60
37702;DHT22;23548;51.196;6.838;2023-06-26T00:20:51;22.60;78.30
37702;DHT22;23548;51.196;6.838;2023-06-26T00:23:17;22.60;78.90
37702;DHT22;23548;51.196;6.838;2023-06-26T00:25:43;22.60;79.10
37702;DHT22;23548;51.196;6.838;2023-06-26T00:28:09;22.60;79.30
37702;DHT22;23548;51.196;6.838;2023-06-26T00:30:35;22.50;79.40
37702;DHT22;23548;51.196;6.838;2023-06-26T00:33:01;22.50;79.60
37702;DHT22;23548;51.196;6.838;2023-06-26T00:35:27;22.50;79.90
37702;DHT22;23548;51.196;6.838;2023-06-26T00:37:52;22.40;80.40
37702;DHT22;23548;51.196;6.838;2023-06-26T00:40:18;22.30;80.90
37702;DHT22;23548;51.196;6.838;2023-06-26T00:42:44;22.30;81.30
37702;DHT22;23548;51.196;6.838;2023-06-26T00:45:10;22.30;81.60
37702;DHT22;23548;51.196;6.838;2023-06-26T00:47:36;22.20;81.60
37702;DHT22;23548;51.196;6.838;2023-06-26T00:50:04;22.20;81.60
37702;DHT22;23548;51.196;6.838;2023-06-26T00:52:30;22.20;81.90
37702;DHT22;23548;51.196;6.838;2023-06-26T00:54:57;22.10;82.10
37702;DHT22;23548;51.196;6.838;2023-06-26T00:57:23;22.00;82.00
37702;DHT22;23548;51.196;6.838;2023-06-26T00:59:50;22.00;82.30
37702;DHT22;23548;51.196;6.838;2023-06-26T01:02:16;22.00;82.60
37702;DHT22;23548;51.196;6.838;2023-06-26T01:04:49;21.90;83.10
37702;DHT22;23548;51.196;6.838;2023-06-26T01:07:16;22.00;83.80
37702;DHT22;23548;51.196;6.838;2023-06-26T01:09:48;21.90;82.80
37702;DHT22;23548;51.196;6.838;2023-06-26T01:12:14;21.90;83.20
37702;DHT22;23548;51.196;6.838;2023-06-26T01:14:40;21.80;83.30
37702;DHT22;23548;51.196;6.838;2023-06-26T01:17:07;21.70;83.80
37702;DHT22;23548;51.196;6.838;2023-06-26T01:19:37;21.80;83.60
37702;DHT22;23548;51.196;6.838;2023-06-26T01:22:12;21.70;84.00
37702;DHT22;23548;51.196;6.838;2023-06-26T01:25:31;21.70;83.60
37702;DHT22;23548;51.196;6.838;2023-06-26T01:27:31;21.70;84.40
37702;DHT22;23548;51.196;6.838;2023-06-26T01:30:01;21.60;84.40
37702;DHT22;23548;51.196;6.838;2023-06-26T01:32:29;21.60;84.70
37702;DHT22;23548;51.196;6.838;2023-06-26T01:34:57;21.60;84.70
37702;DHT22;23548;51.196;6.838;2023-06-26T01:37:23;21.60;84.80
37702;DHT22;23548;51.196;6.838;2023-06-26T01:39:48;21.50;85.00
37702;DHT22;23548;51.196;6.838;2023-06-26T01:42:14;21.50;85.00
37702;DHT22;23548;51.196;6.838;2023-06-26T01:44:45;21.50;85.00
37702;DHT22;23548;51.196;6.838;2023-06-26T01:47:16;21.40;84.40
37702;DHT22;23548;51.196;6.838;2023-06-26T01:50:05;21.40;84.60
37702;DHT22;23548;51.196;6.838;2023-06-26T01:52:40;21.40;85.20
37702;DHT22;23548;51.196;6.838;2023-06-26T01:55:35;21.30;84.90
37702;DHT22;23548;51.196;6.838;2023-06-26T01:58:04;21.30;85.30
37702;DHT22;23548;51.196;6.838;2023-06-26T02:00:30;21.30;84.70
37702;DHT22;23548;51.196;6.838;2023-06-26T02:02:57;21.40;85.20
37702;DHT22;23548;51.196;6.838;2023-06-26T02:05:23;21.30;84.40
37702;DHT22;23548;51.196;6.838;2023-06-26T02:07:49;21.30;84.00
37702;DHT22;23548;51.196;6.838;2023-06-26T02:10:15;21.40;84.00
37702;DHT22;23548;51.196;6.838;2023-06-26T02:12:41;21.30;83.80
37702;DHT22;23548;51.196;6.838;2023-06-26T02:15:07;21.30;82.10
37702;DHT22;23548;51.196;6.838;2023-06-26T02:17:33;21.30;82.70
37702;DHT22;23548;51.196;6.838;2023-06-26T02:19:59;21.40;81.80
37702;DHT22;23548;51.196;6.838;2023-06-26T02:22:25;21.40;82.60
37702;DHT22;23548;51.196;6.838;2023-06-26T02:24:50;21.30;82.50
37702;DHT22;23548;51.196;6.838;2023-06-26T02:27:16;21.30;82.80
37702;DHT22;23548;51.196;6.838;2023-06-26T02:29:42;21.30;82.60
37702;DHT22;23548;51.196;6.838;2023-06-26T02:32:09;21.40;82.60
37702;DHT22;23548;51.196;6.838;2023-06-26T02:34:35;21.40;83.40
37702;DHT22;23548;51.196;6.838;2023-06-26T02:37:01;21.30;83.40
37702;DHT22;23548;51.196;6.838;2023-06-26T02:39:27;21.30;83.70
37702;DHT22;23548;51.196;6.838;2023-06-26T02:41:53;21.30;83.90
37702;DHT22;23548;51.196;6.838;2023-06-26T02:44:19;21.20;83.80
37702;DHT22;23548;51.196;6.838;2023-06-26T02:46:45;21.30;82.60
37702;DHT22;23548;51.196;6.838;2023-06-26T02:49:10;21.30;82.70
37702;DHT22;23548;51.196;6.838;2023-06-26T02:51:36;21.30;82.70
37702;DHT22;23548;51.196;6.838;2023-06-26T02:54:02;21.40;83.10
37702;DHT22;23548;51.196;6.838;2023-06-26T02:56:29;21.30;84.00
37702;DHT22;23548;51.196;6.838;2023-06-26T02:58:55;21.30;84.30
37702;DHT22;23548;51.196;6.838;2023-06-26T03:01:21;21.20;84.50
37702;DHT22;23548;51.196;6.838;2023-06-26T03:03:46;21.20;84.90
37702;DHT22;23548;51.196;6.838;2023-06-26T03:06:12;21.40;83.00
37702;DHT22;23548;51.196;6.838;2023-06-26T03:08:38;21.50;82.40
37702;DHT22;23548;51.196;6.838;2023-06-26T03:11:05;21.50;81.90
37702;DHT22;23548;51.196;6.838;2023-06-26T03:13:32;21.60;81.30
37702;DHT22;23548;51.196;6.838;2023-06-26T03:15:58;21.60;81.10
37702;DHT22;23548;51.196;6.838;2023-06-26T03:18:24;21.60;81.10
37702;DHT22;23548;51.196;6.838;2023-06-26T03:20:50;21.70;80.20
37702;DHT22;23548;51.196;6.838;2023-06-26T03:23:16;21.70;80.00
37702;DHT22;23548;51.196;6.838;2023-06-26T03:25:41;21.70;80.10
37702;DHT22;23548;51.196;6.838;2023-06-26T03:28:07;21.70;80.10
37702;DHT22;23548;51.196;6.838;2023-06-26T03:30:33;21.70;80.10
37702;DHT22;23548;51.196;6.838;2023-06-26T03:32:58;21.70;80.50
37702;DHT22;23548;51.196;6.838;2023-06-26T03:35:24;21.70;80.60
37702;DHT22;23548;51.196;6.838;2023-06-26T03:37:50;21.70;80.80
37702;DHT22;23548;51.196;6.838;2023-06-26T03:40:16;21.80;80.90
37702;DHT22;23548;51.196;6.838;2023-06-26T03:42:42;21.80;80.90
37702;DHT22;23548;51.196;6.838;2023-06-26T03:45:08;21.80;81.20
37702;DHT22;23548;51.196;6.838;2023-06-26T03:47:34;21.80;81.40
37702;DHT22;23548;51.196;6.838;2023-06-26T03:49:59;21.90;81.70
37702;DHT22;23548;51.196;6.838;2023-06-26T03:52:25;21.90;81.80
37702;DHT22;23548;51.196;6.838;2023-06-26T03:54:51;21.90;81.90
37702;DHT22;23548;51.196;6.838;2023-06-26T03:57:16;22.10;81.90
37702;DHT22;23548;51.196;6.838;2023-06-26T03:59:42;22.10;82.10
37702;DHT22;23548;51.196;6.838;2023-06-26T04:02:08;22.10;82.30
37702;DHT22;23548;51.196;6.838;2023-06-26T04:04:33;22.10;82.50
37702;DHT22;23548;51.196;6.838;2023-06-26T04:06:59;22.20;82.20
37702;DHT22;23548;51.196;6.838;2023-06-26T04:09:25;22.20;82.30
37702;DHT22;23548;51.196;6.838;2023-06-26T04:11:51;22.20;81.60
37702;DHT22;23548;51.196;6.838;2023-06-26T04:14:17;22.30;81.30
37702;DHT22;23548;51.196;6.838;2023-06-26T04:16:43;22.30;80.70
37702;DHT22;23548;51.196;6.838;2023-06-26T04:19:09;22.40;80.90
37702;DHT22;23548;51.196;6.838;2023-06-26T04:21:35;22.30;81.10
37702;DHT22;23548;51.196;6.838;2023-06-26T04:24:01;22.40;81.10
37702;DHT22;23548;51.196;6.838;2023-06-26T04:26:27;22.40;81.10
37702;DHT22;23548;51.196;6.838;2023-06-26T04:28:54;22.50;81.00
37702;DHT22;23548;51.196;6.838;2023-06-26T04:31:20;22.60;80.90
37702;DHT22;23548;51.196;6.838;2023-06-26T04:33:45;22.60;80.90
37702;DHT22;23548;51.196;6.838;2023-06-26T04:36:17;22.60;80.80
37702;DHT22;23548;51.196;6.838;2023-06-26T04:38:43;22.60;81.30
37702;DHT22;23548;51.196;6.838;2023-06-26T04:41:09;22.60;80.80
37702;DHT22;23548;51.196;6.838;2023-06-26T04:43:35;22.50;81.20
37702;DHT22;23548;51.196;6.838;2023-06-26T04:46:02;22.50;80.80
37702;DHT22;23548;51.196;6.838;2023-06-26T04:48:28;22.50;80.10
37702;DHT22;23548;51.196;6.838;2023-06-26T04:50:56;22.40;79.70
37702;DHT22;23548;51.196;6.838;2023-06-26T04:53:23;22.40;79.10
37702;DHT22;23548;51.196;6.838;2023-06-26T04:55:52;22.50;79.80
37702;DHT22;23548;51.196;6.838;2023-06-26T04:58:19;22.50;78.80
37702;DHT22;23548;51.196;6.838;2023-06-26T05:00:44;22.60;78.60
37702;DHT22;23548;51.196;6.838;2023-06-26T05:03:12;22.70;77.30
37702;DHT22;23548;51.196;6.838;2023-06-26T05:05:38;22.80;77.80
37702;DHT22;23548;51.196;6.838;2023-06-26T05:08:14;22.60;78.40
37702;DHT22;23548;51.196;6.838;2023-06-26T05:10:41;22.90;78.00
37702;DHT22;23548;51.196;6.838;2023-06-26T05:13:07;22.90;78.30
37702;DHT22;23548;51.196;6.838;2023-06-26T05:15:33;22.90;79.30
37702;DHT22;23548;51.196;6.838;2023-06-26T05:17:59;23.00;78.20
37702;DHT22;23548;51.196;6.838;2023-06-26T05:20:24;23.00;78.60
37702;DHT22;23548;51.196;6.838;2023-06-26T05:22:50;23.10;78.40
37702;DHT22;23548;51.196;6.838;2023-06-26T05:25:18;22.90;78.70
37702;DHT22;23548;51.196;6.838;2023-06-26T05:27:44;23.00;78.10
37702;DHT22;23548;51.196;6.838;2023-06-26T05:30:10;22.90;77.90
37702;DHT22;23548;51.196;6.838;2023-06-26T05:32:38;22.80;79.40
37702;DHT22;23548;51.196;6.838;2023-06-26T05:35:05;22.80;80.20
37702;DHT22;23548;51.196;6.838;2023-06-26T05:37:32;22.50;81.50
37702;DHT22;23548;51.196;6.838;2023-06-26T05:39:59;22.60;81.90
37702;DHT22;23548;51.196;6.838;2023-06-26T05:42:29;22.70;82.80
37702;DHT22;23548;51.196;6.838;2023-06-26T05:44:55;22.70;82.40
37702;DHT22;23548;51.196;6.838;2023-06-26T05:47:21;23.00;80.90
37702;DHT22;23548;51.196;6.838;2023-06-26T05:49:47;23.00;81.20
37702;DHT22;23548;51.196;6.838;2023-06-26T05:52:13;22.80;80.60
37702;DHT22;23548;51.196;6.838;2023-06-26T05:54:39;22.80;81.10
37702;DHT22;23548;51.196;6.838;2023-06-26T05:57:05;22.60;81.40
37702;DHT22;23548;51.196;6.838;2023-06-26T05:59:32;22.60;82.00
37702;DHT22;23548;51.196;6.838;2023-06-26T06:01:58;22.90;81.70
37702;DHT22;23548;51.196;6.838;2023-06-26T06:04:24;23.10;81.40
37702;DHT22;23548;51.196;6.838;2023-06-26T06:06:50;23.40;79.00
37702;DHT22;23548;51.196;6.838;2023-06-26T06:09:16;23.60;77.60
37702;DHT22;23548;51.196;6.838;2023-06-26T06:11:41;23.50;78.00
37702;DHT22;23548;51.196;6.838;2023-06-26T06:14:07;23.40;78.40
37702;DHT22;23548;51.196;6.838;2023-06-26T06:16:33;23.00;79.20
37702;DHT22;23548;51.196;6.838;2023-06-26T06:18:59;23.20;79.20
37702;DHT22;23548;51.196;6.838;2023-06-26T06:21:24;23.10;78.90
37702;DHT22;23548;51.196;6.838;2023-06-26T06:23:50;22.90;79.80
37702;DHT22;23548;51.196;6.838;2023-06-26T06:26:16;22.60;81.10
37702;DHT22;23548;51.196;6.838;2023-06-26T06:28:42;22.60;81.60
37702;DHT22;23548;51.196;6.838;2023-06-26T06:31:07;22.80;80.80
37702;DHT22;23548;51.196;6.838;2023-06-26T06:33:33;22.70;80.60
37702;DHT22;23548;51.196;6.838;2023-06-26T06:36:00;22.50;81.40
37702;DHT22;23548;51.196;6.838;2023-06-26T06:38:25;22.20;81.80
37702;DHT22;23548;51.196;6.838;2023-06-26T06:40:51;22.10;82.80
37702;DHT22;23548;51.196;6.838;2023-06-26T06:43:17;22.30;82.80
37702;DHT22;23548;51.196;6.838;2023-06-26T06:45:42;22.40;81.60
37702;DHT22;23548;51.196;6.838;2023-06-26T06:48:08;22.50;81.20
37702;DHT22;23548;51.196;6.838;2023-06-26T06:50:36;22.60;81.30
37702;DHT22;23548;51.196;6.838;2023-06-26T06:53:02;22.50;81.50
37702;DHT22;23548;51.196;6.838;2023-06-26T06:55:28;22.70;81.00
37702;DHT22;23548;51.196;6.838;2023-06-26T06:57:53;22.80;80.90
37702;DHT22;23548;51.196;6.838;2023-06-26T07:00:19;22.80;80.10
37702;DHT22;23548;51.196;6.838;2023-06-26T07:02:46;23.10;79.70
37702;DHT22;23548;51.196;6.838;2023-06-26T07:05:12;23.50;78.20
37702;DHT22;23548;51.196;6.838;2023-06-26T07:07:38;24.10;76.60
37702;DHT22;23548;51.196;6.838;2023-06-26T07:10:06;24.50;75.70
37702;DHT22;23548;51.196;6.838;2023-06-26T07:12:33;24.20;75.30
37702;DHT22;23548;51.196;6.838;2023-06-26T07:15:00;24.20;75.60
37702;DHT22;23548;51.196;6.838;2023-06-26T07:17:26;24.10;76.00
37702;DHT22;23548;51.196;6.838;2023-06-26T07:19:52;23.90;76.30
37702;DHT22;23548;51.196;6.838;2023-06-26T07:22:18;23.90;76.60
37702;DHT22;23548;51.196;6.838;2023-06-26T07:24:47;23.80;76.10
37702;DHT22;23548;51.196;6.838;2023-06-26T07:27:17;23.80;75.70
37702;DHT22;23548;51.196;6.838;2023-06-26T07:29:46;23.60;76.80
37702;DHT22;23548;51.196;6.838;2023-06-26T07:32:12;23.40;76.50
37702;DHT22;23548;51.196;6.838;2023-06-26T07:34:38;23.30;77.40
37702;DHT22;23548;51.196;6.838;2023-06-26T07:37:04;23.50;77.30
37702;DHT22;23548;51.196;6.838;2023-06-26T07:39:30;23.60;76.90
37702;DHT22;23548;51.196;6.838;2023-06-26T07:41:56;23.20;78.60
37702;DHT22;23548;51.196;6.838;2023-06-26T07:44:23;23.50;78.00
37702;DHT22;23548;51.196;6.838;2023-06-26T07:46:49;23.50;79.00
37702;DHT22;23548;51.196;6.838;2023-06-26T07:49:15;23.70;77.80
37702;DHT22;23548;51.196;6.838;2023-06-26T07:51:40;23.70;77.10
37702;DHT22;23548;51.196;6.838;2023-06-26T07:54:06;23.90;76.60
37702;DHT22;23548;51.196;6.838;2023-06-26T07:56:52;24.20;75.70
37702;DHT22;23548;51.196;6.838;2023-06-26T07:59:19;23.60;77.60
37702;DHT22;23548;51.196;6.838;2023-06-26T08:01:44;23.70;77.20
37702;DHT22;23548;51.196;6.838;2023-06-26T08:04:10;23.80;77.10
37702;DHT22;23548;51.196;6.838;2023-06-26T08:06:36;23.80;77.30
37702;DHT22;23548;51.196;6.838;2023-06-26T08:09:07;24.10;76.30
37702;DHT22;23548;51.196;6.838;2023-06-26T08:11:34;24.70;74.40
37702;DHT22;23548;51.196;6.838;2023-06-26T08:14:00;24.80;74.20
37702;DHT22;23548;51.196;6.838;2023-06-26T08:16:28;24.60;75.20
37702;DHT22;23548;51.196;6.838;2023-06-26T08:18:57;24.70;74.50
37702;DHT22;23548;51.196;6.838;2023-06-26T08:21:22;24.70;74.60
37702;DHT22;23548;51.196;6.838;2023-06-26T08:23:48;24.40;75.00
37702;DHT22;23548;51.196;6.838;2023-06-26T08:26:14;24.20;75.40
37702;DHT22;23548;51.196;6.838;2023-06-26T08:28:39;24.40;74.50
37702;DHT22;23548;51.196;6.838;2023-06-26T08:31:05;24.60;74.40
37702;DHT22;23548;51.196;6.838;2023-06-26T08:33:31;25.00;73.00
37702;DHT22;23548;51.196;6.838;2023-06-26T08:35:57;25.00;73.40
37702;DHT22;23548;51.196;6.838;2023-06-26T08:38:22;24.60;73.60
37702;DHT22;23548;51.196;6.838;2023-06-26T08:40:48;24.30;74.10
37702;DHT22;23548;51.196;6.838;2023-06-26T08:43:14;24.30;74.80
37702;DHT22;23548;51.196;6.838;2023-06-26T08:45:40;24.20;75.80
37702;DHT22;23548;51.196;6.838;2023-06-26T08:48:08;24.30;75.30
37702;DHT22;23548;51.196;6.838;2023-06-26T08:50:35;24.30;73.40
37702;DHT22;23548;51.196;6.838;2023-06-26T08:53:55;24.40;73.30
37702;DHT22;23548;51.196;6.838;2023-06-26T08:56:15;24.50;73.90
37702;DHT22;23548;51.196;6.838;2023-06-26T08:58:44;24.70;72.40
37702;DHT22;23548;51.196;6.838;2023-06-26T09:01:09;24.90;71.60
37702;DHT22;23548;51.196;6.838;2023-06-26T09:03:36;24.90;71.40
37702;DHT22;23548;51.196;6.838;2023-06-26T09:06:04;24.90;72.20
37702;DHT22;23548;51.196;6.838;2023-06-26T09:08:32;24.40;72.80
37702;DHT22;23548;51.196;6.838;2023-06-26T09:11:01;23.90;74.90
37702;DHT22;23548;51.196;6.838;2023-06-26T09:13:31;24.10;75.10
37702;DHT22;23548;51.196;6.838;2023-06-26T09:15:57;24.20;74.60
37702;DHT22;23548;51.196;6.838;2023-06-26T09:18:23;24.30;73.60
37702;DHT22;23548;51.196;6.838;2023-06-26T09:20:49;24.30;71.60
37702;DHT22;23548;51.196;6.838;2023-06-26T09:23:16;24.30;71.90
37702;DHT22;23548;51.196;6.838;2023-06-26T09:25:41;24.60;71.80
37702;DHT22;23548;51.196;6.838;2023-06-26T09:28:11;24.60;71.40
37702;DHT22;23548;51.196;6.838;2023-06-26T09:30:36;25.00;70.40
37702;DHT22;23548;51.196;6.838;2023-06-26T09:33:15;25.10;69.00
37702;DHT22;23548;51.196;6.838;2023-06-26T09:35:42;24.70;69.40
37702;DHT22;23548;51.196;6.838;2023-06-26T09:38:08;24.60;69.90
37702;DHT22;23548;51.196;6.838;2023-06-26T09:40:34;24.50;71.10
37702;DHT22;23548;51.196;6.838;2023-06-26T09:43:07;24.70;71.70
37702;DHT22;23548;51.196;6.838;2023-06-26T09:45:34;24.50;70.40
37702;DHT22;23548;51.196;6.838;2023-06-26T09:48:03;24.70;70.50
37702;DHT22;23548;51.196;6.838;2023-06-26T09:50:29;25.40;68.70
37702;DHT22;23548;51.196;6.838;2023-06-26T09:52:57;25.60;68.40
37702;DHT22;23548;51.196;6.838;2023-06-26T09:55:25;25.50;67.40
37702;DHT22;23548;51.196;6.838;2023-06-26T09:57:52;25.30;67.30
37702;DHT22;23548;51.196;6.838;2023-06-26T10:00:19;25.00;67.30
37702;DHT22;23548;51.196;6.838;2023-06-26T10:02:45;24.50;67.30
37702;DHT22;23548;51.196;6.838;2023-06-26T10:05:11;24.60;68.30
37702;DHT22;23548;51.196;6.838;2023-06-26T10:07:37;24.80;67.90
37702;DHT22;23548;51.196;6.838;2023-06-26T10:10:05;25.00;67.60
37702;DHT22;23548;51.196;6.838;2023-06-26T10:12:32;25.10;67.80
37702;DHT22;23548;51.196;6.838;2023-06-26T10:14:59;25.50;64.80
37702;DHT22;23548;51.196;6.838;2023-06-26T10:17:32;25.70;63.00
37702;DHT22;23548;51.196;6.838;2023-06-26T10:20:02;25.90;62.70
37702;DHT22;23548;51.196;6.838;2023-06-26T10:22:31;25.80;63.20
37702;DHT22;23548;51.196;6.838;2023-06-26T10:24:59;25.60;61.80
37702;DHT22;23548;51.196;6.838;2023-06-26T10:27:29;25.40;62.40
37702;DHT22;23548;51.196;6.838;2023-06-26T10:29:59;25.40;61.80
37702;DHT22;23548;51.196;6.838;2023-06-26T10:32:26;25.60;60.90
37702;DHT22;23548;51.196;6.838;2023-06-26T10:34:53;25.20;62.80
37702;DHT22;23548;51.196;6.838;2023-06-26T10:37:20;24.80;64.60
37702;DHT22;23548;51.196;6.838;2023-06-26T10:39:51;25.10;63.40
37702;DHT22;23548;51.196;6.838;2023-06-26T10:42:18;25.50;61.50
37702;DHT22;23548;51.196;6.838;2023-06-26T10:44:46;25.60;59.50
37702;DHT22;23548;51.196;6.838;2023-06-26T10:47:28;25.70;61.20
37702;DHT22;23548;51.196;6.838;2023-06-26T10:49:54;25.90;59.90
37702;DHT22;23548;51.196;6.838;2023-06-26T10:52:21;25.90;59.50
37702;DHT22;23548;51.196;6.838;2023-06-26T10:54:46;26.00;60.40
37702;DHT22;23548;51.196;6.838;2023-06-26T10:57:23;26.00;59.00
37702;DHT22;23548;51.196;6.838;2023-06-26T11:00:11;25.80;59.60
37702;DHT22;23548;51.196;6.838;2023-06-26T11:02:51;25.90;58.60
37702;DHT22;23548;51.196;6.838;2023-06-26T11:05:29;25.90;58.10
37702;DHT22;23548;51.196;6.838;2023-06-26T11:08:09;25.90;59.30
37702;DHT22;23548;51.196;6.838;2023-06-26T11:10:52;25.60;58.00
37702;DHT22;23548;51.196;6.838;2023-06-26T11:13:18;25.60;57.80
37702;DHT22;23548;51.196;6.838;2023-06-26T11:15:45;25.90;58.40
37702;DHT22;23548;51.196;6.838;2023-06-26T11:18:12;25.80;54.20
37702;DHT22;23548;51.196;6.838;2023-06-26T11:20:38;25.70;55.90
37702;DHT22;23548;51.196;6.838;2023-06-26T11:23:04;25.70;57.10
37702;DHT22;23548;51.196;6.838;2023-06-26T11:25:37;25.90;57.70
37702;DHT22;23548;51.196;6.838;2023-06-26T11:28:04;26.00;57.50
37702;DHT22;23548;51.196;6.838;2023-06-26T11:30:30;26.00;55.60
37702;DHT22;23548;51.196;6.838;2023-06-26T11:33:03;25.80;54.80
37702;DHT22;23548;51.196;6.838;2023-06-26T11:35:29;25.70;54.30
37702;DHT22;23548;51.196;6.838;2023-06-26T11:38:00;25.70;53.90
37702;DHT22;23548;51.196;6.838;2023-06-26T11:40:26;25.60;54.30
37702;DHT22;23548;51.196;6.838;2023-06-26T11:42:55;25.50;53.10
37702;DHT22;23548;51.196;6.838;2023-06-26T11:45:21;25.60;52.40
37702;DHT22;23548;51.196;6.838;2023-06-26T11:47:47;25.90;52.10
37702;DHT22;23548;51.196;6.838;2023-06-26T11:50:16;26.50;50.10
37702;DHT22;23548;51.196;6.838;2023-06-26T11:52:43;26.70;50.60
37702;DHT22;23548;51.196;6.838;2023-06-26T11:55:09;26.90;50.40
37702;DHT22;23548;51.196;6.838;2023-06-26T11:57:38;26.80;50.10
37702;DHT22;23548;51.196;6.838;2023-06-26T12:00:14;26.50;51.20
37702;DHT22;23548;51.196;6.838;2023-06-26T12:02:40;26.70;51.50
37702;DHT22;23548;51.196;6.838;2023-06-26T12:05:06;27.00;51.50
37702;DHT22;23548;51.196;6.838;2023-06-26T12:07:32;27.00;51.90
37702;DHT22;23548;51.196;6.838;2023-06-26T12:09:59;26.50;53.00
37702;DHT22;23548;51.196;6.838;2023-06-26T12:12:25;25.90;53.80
37702;DHT22;23548;51.196;6.838;2023-06-26T12:14:52;25.90;53.70
37702;DHT22;23548;51.196;6.838;2023-06-26T12:17:18;25.60;53.60
37702;DHT22;23548;51.196;6.838;2023-06-26T12:19:47;25.80;52.90
37702;DHT22;23548;51.196;6.838;2023-06-26T12:22:17;25.90;52.20
37702;DHT22;23548;51.196;6.838;2023-06-26T12:24:44;25.50;53.00
37702;DHT22;23548;51.196;6.838;2023-06-26T12:27:14;25.70;53.10
37702;DHT22;23548;51.196;6.838;2023-06-26T12:29:45;25.30;50.80
37702;DHT22;23548;51.196;6.838;2023-06-26T12:32:12;25.30;50.90
37702;DHT22;23548;51.196;6.838;2023-06-26T12:34:40;25.10;50.50
37702;DHT22;23548;51.196;6.838;2023-06-26T12:37:08;24.90;51.00
37702;DHT22;23548;51.196;6.838;2023-06-26T12:39:55;25.00;51.50
37702;DHT22;23548;51.196;6.838;2023-06-26T12:42:23;25.30;50.30
37702;DHT22;23548;51.196;6.838;2023-06-26T12:44:52;25.50;49.80
37702;DHT22;23548;51.196;6.838;2023-06-26T12:47:25;25.60;49.90
37702;DHT22;23548;51.196;6.838;2023-06-26T12:49:52;25.90;49.20
37702;DHT22;23548;51.196;6.838;2023-06-26T12:52:21;26.50;47.50
37702;DHT22;23548;51.196;6.838;2023-06-26T12:54:52;26.90;46.70
37702;DHT22;23548;51.196;6.838;2023-06-26T12:57:18;27.10;45.80
37702;DHT22;23548;51.196;6.838;2023-06-26T12:59:43;27.30;46.30
37702;DHT22;23548;51.196;6.838;2023-06-26T13:02:09;27.30;46.90
37702;DHT22;23548;51.196;6.838;2023-06-26T13:04:38;26.90;46.10
37702;DHT22;23548;51.196;6.838;2023-06-26T13:07:09;26.40;46.30
37702;DHT22;23548;51.196;6.838;2023-06-26T13:09:36;26.40;46.60
37702;DHT22;23548;51.196;6.838;2023-06-26T13:12:03;26.50;46.10
37702;DHT22;23548;51.196;6.838;2023-06-26T13:14:30;26.70;45.80
37702;DHT22;23548;51.196;6.838;2023-06-26T13:16:55;26.40;46.40
37702;DHT22;23548;51.196;6.838;2023-06-26T13:19:21;26.10;46.40
37702;DHT22;23548;51.196;6.838;2023-06-26T13:21:47;25.60;46.60
37702;DHT22;23548;51.196;6.838;2023-06-26T13:24:13;25.90;46.90
37702;DHT22;23548;51.196;6.838;2023-06-26T13:26:39;26.40;46.40
37702;DHT22;23548;51.196;6.838;2023-06-26T13:29:05;26.90;45.30
37702;DHT22;23548;51.196;6.838;2023-06-26T13:31:31;28.30;41.60
37702;DHT22;23548;51.196;6.838;2023-06-26T13:33:58;28.90;40.50
37702;DHT22;23548;51.196;6.838;2023-06-26T13:36:24;30.10;39.10
37702;DHT22;23548;51.196;6.838;2023-06-26T13:38:50;30.30;38.90
37702;DHT22;23548;51.196;6.838;2023-06-26T13:41:22;29.80;39.50
37702;DHT22;23548;51.196;6.838;2023-06-26T13:43:48;28.90;42.60
37702;DHT22;23548;51.196;6.838;2023-06-26T13:46:15;28.50;44.00
37702;DHT22;23548;51.196;6.838;2023-06-26T13:48:40;28.10;44.10
37702;DHT22;23548;51.196;6.838;2023-06-26T13:51:06;28.70;43.20
37702;DHT22;23548;51.196;6.838;2023-06-26T13:53:32;28.00;43.00
37702;DHT22;23548;51.196;6.838;2023-06-26T13:55:58;27.10;44.60
37702;DHT22;23548;51.196;6.838;2023-06-26T13:58:24;26.30;46.70
37702;DHT22;23548;51.196;6.838;2023-06-26T14:00:52;26.80;45.00
37702;DHT22;23548;51.196;6.838;2023-06-26T14:03:19;27.90;43.40
37702;DHT22;23548;51.196;6.838;2023-06-26T14:05:44;28.70;40.70
37702;DHT22;23548;51.196;6.838;2023-06-26T14:08:10;27.20;42.70
37702;DHT22;23548;51.196;6.838;2023-06-26T14:10:36;26.30;44.40
37702;DHT22;23548;51.196;6.838;2023-06-26T14:13:03;26.00;45.70
37702;DHT22;23548;51.196;6.838;2023-06-26T14:15:33;26.90;44.50
37702;DHT22;23548;51.196;6.838;2023-06-26T14:17:59;29.10;40.20
37702;DHT22;23548;51.196;6.838;2023-06-26T14:20:25;29.80;38.20
37702;DHT22;23548;51.196;6.838;2023-06-26T14:22:51;28.00;41.10
37702;DHT22;23548;51.196;6.838;2023-06-26T14:25:17;27.00;42.90
37702;DHT22;23548;51.196;6.838;2023-06-26T14:27:42;27.10;43.60
37702;DHT22;23548;51.196;6.838;2023-06-26T14:30:08;27.90;43.00
37702;DHT22;23548;51.196;6.838;2023-06-26T14:32:35;28.80;41.70
37702;DHT22;23548;51.196;6.838;2023-06-26T14:35:01;28.30;42.20
37702;DHT22;23548;51.196;6.838;2023-06-26T14:37:29;28.10;42.70
37702;DHT22;23548;51.196;6.838;2023-06-26T14:39:56;29.60;40.80
37702;DHT22;23548;51.196;6.838;2023-06-26T14:42:22;30.40;39.30
37702;DHT22;23548;51.196;6.838;2023-06-26T14:44:48;29.00;41.40
37702;DHT22;23548;51.196;6.838;2023-06-26T14:47:16;29.90;40.70
37702;DHT22;23548;51.196;6.838;2023-06-26T14:49:42;30.10;40.30
37702;DHT22;23548;51.196;6.838;2023-06-26T14:52:08;30.30;39.60
37702;DHT22;23548;51.196;6.838;2023-06-26T14:54:35;29.90;40.50
37702;DHT22;23548;51.196;6.838;2023-06-26T14:57:05;30.40;39.90
37702;DHT22;23548;51.196;6.838;2023-06-26T14:59:31;31.20;37.70
37702;DHT22;23548;51.196;6.838;2023-06-26T15:01:56;31.20;36.60
37702;DHT22;23548;51.196;6.838;2023-06-26T15:04:22;30.50;38.40
37702;DHT22;23548;51.196;6.838;2023-06-26T15:06:48;29.60;40.20
37702;DHT22;23548;51.196;6.838;2023-06-26T15:09:14;28.50;41.50
37702;DHT22;23548;51.196;6.838;2023-06-26T15:11:40;28.00;42.40
37702;DHT22;23548;51.196;6.838;2023-06-26T15:14:06;28.20;41.40
37702;DHT22;23548;51.196;6.838;2023-06-26T15:16:31;27.80;41.00
37702;DHT22;23548;51.196;6.838;2023-06-26T15:18:57;27.60;41.10
37702;DHT22;23548;51.196;6.838;2023-06-26T15:21:23;27.20;41.80
37702;DHT22;23548;51.196;6.838;2023-06-26T15:23:50;26.60;42.00
37702;DHT22;23548;51.196;6.838;2023-06-26T15:26:16;26.70;41.90
37702;DHT22;23548;51.196;6.838;2023-06-26T15:28:42;26.80;42.00
37702;DHT22;23548;51.196;6.838;2023-06-26T15:31:08;26.30;42.90